sensor_id;sensor_type;location;lat;lon;timestamp;P1;durP1;ratioP1;P2;durP2;ratioP2
68168;SDS011;54981;50.206;15.978;2023-07-13T00:02:22;7.45;;;4.57;;
68168;SDS011;54981;50.206;15.978;2023-07-13T00:04:53;5.25;;;4.35;;
68168;SDS011;54981;50.206;15.978;2023-07-13T00:07:24;6.97;;;4.10;;
68168;SDS011;54981;50.206;15.978;2023-07-13T00:09:54;7.20;;;4.35;;
68168;SDS011;54981;50.206;15.978;2023-07-13T00:12:26;6.85;;;4.47;;
68168;SDS011;54981;50.206;15.978;2023-07-13T00:15:03;5.95;;;4.15;;
68168;SDS011;54981;50.206;15.978;2023-07-13T00:17:35;5.70;;;4.53;;
68168;SDS011;54981;50.206;15.978;2023-07-13T00:20:08;6.63;;;4.38;;
68168;SDS011;54981;50.206;15.978;2023-07-13T00:22:39;5.20;;;3.70;;
68168;SDS011;54981;50.206;15.978;2023-07-13T00:25:10;5.50;;;4.18;;
68168;SDS011;54981;50.206;15.978;2023-07-13T00:27:42;7.20;;;4.65;;
68168;SDS011;54981;50.206;15.978;2023-07-13T00:30:14;5.53;;;4.40;;
68168;SDS011;54981;50.206;15.978;2023-07-13T00:32:45;6.47;;;4.13;;
68168;SDS011;54981;50.206;15.978;2023-07-13T00:35:15;6.25;;;4.15;;
68168;SDS011;54981;50.206;15.978;2023-07-13T00:37:46;5.75;;;4.10;;
68168;SDS011;54981;50.206;15.978;2023-07-13T00:40:18;4.82;;;4.03;;
68168;SDS011;54981;50.206;15.978;2023-07-13T00:42:48;8.80;;;4.40;;
68168;SDS011;54981;50.206;15.978;2023-07-13T00:47:52;5.90;;;4.10;;
68168;SDS011;54981;50.206;15.978;2023-07-13T00:50:25;5.60;;;4.78;;
68168;SDS011;54981;50.206;15.978;2023-07-13T00:52:56;5.55;;;4.85;;
68168;SDS011;54981;50.206;15.978;2023-07-13T00:55:28;4.97;;;4.00;;
68168;SDS011;54981;50.206;15.978;2023-07-13T00:57:58;7.32;;;4.63;;
68168;SDS011;54981;50.206;15.978;2023-07-13T01:00:29;5.05;;;4.30;;
68168;SDS011;54981;50.206;15.978;2023-07-13T01:03:00;5.40;;;4.45;;
68168;SDS011;54981;50.206;15.978;2023-07-13T01:05:34;5.15;;;4.20;;
68168;SDS011;54981;50.206;15.978;2023-07-13T01:08:04;6.43;;;5.22;;
68168;SDS011;54981;50.206;15.978;2023-07-13T01:10:35;5.50;;;4.57;;
68168;SDS011;54981;50.206;15.978;2023-07-13T01:13:10;5.97;;;4.57;;
68168;SDS011;54981;50.206;15.978;2023-07-13T01:15:42;5.72;;;4.47;;
68168;SDS011;54981;50.206;15.978;2023-07-13T01:18:19;6.43;;;4.35;;
68168;SDS011;54981;50.206;15.978;2023-07-13T01:20:52;6.63;;;4.50;;
68168;SDS011;54981;50.206;15.978;2023-07-13T01:23:23;6.18;;;4.60;;
68168;SDS011;54981;50.206;15.978;2023-07-13T01:25:55;7.13;;;4.97;;
68168;SDS011;54981;50.206;15.978;2023-07-13T01:28:27;4.70;;;4.30;;
68168;SDS011;54981;50.206;15.978;2023-07-13T01:30:58;5.88;;;4.97;;
68168;SDS011;54981;50.206;15.978;2023-07-13T01:33:29;5.60;;;4.93;;
68168;SDS011;54981;50.206;15.978;2023-07-13T01:36:00;9.13;;;5.40;;
68168;SDS011;54981;50.206;15.978;2023-07-13T01:38:32;5.38;;;4.25;;
68168;SDS011;54981;50.206;15.978;2023-07-13T01:41:03;5.47;;;4.97;;
68168;SDS011;54981;50.206;15.978;2023-07-13T01:43:34;6.35;;;5.18;;
68168;SDS011;54981;50.206;15.978;2023-07-13T01:46:04;6.55;;;5.10;;
68168;SDS011;54981;50.206;15.978;2023-07-13T01:48:34;7.15;;;5.88;;
68168;SDS011;54981;50.206;15.978;2023-07-13T01:51:05;7.22;;;5.20;;
68168;SDS011;54981;50.206;15.978;2023-07-13T01:53:35;7.45;;;5.25;;
68168;SDS011;54981;50.206;15.978;2023-07-13T01:56:05;7.65;;;5.35;;
68168;SDS011;54981;50.206;15.978;2023-07-13T01:58:36;9.25;;;6.25;;
68168;SDS011;54981;50.206;15.978;2023-07-13T02:01:06;5.95;;;5.25;;
68168;SDS011;54981;50.206;15.978;2023-07-13T02:03:37;7.50;;;5.05;;
68168;SDS011;54981;50.206;15.978;2023-07-13T02:06:07;6.82;;;5.88;;
68168;SDS011;54981;50.206;15.978;2023-07-13T02:08:37;6.95;;;5.82;;
68168;SDS011;54981;50.206;15.978;2023-07-13T02:11:08;7.30;;;5.07;;
68168;SDS011;54981;50.206;15.978;2023-07-13T02:13:39;7.20;;;4.97;;
68168;SDS011;54981;50.206;15.978;2023-07-13T02:16:09;6.68;;;5.40;;
68168;SDS011;54981;50.206;15.978;2023-07-13T02:18:40;8.15;;;6.57;;
68168;SDS011;54981;50.206;15.978;2023-07-13T02:21:10;6.55;;;5.93;;
68168;SDS011;54981;50.206;15.978;2023-07-13T02:23:41;8.02;;;6.28;;
68168;SDS011;54981;50.206;15.978;2023-07-13T02:26:11;9.35;;;6.43;;
68168;SDS011;54981;50.206;15.978;2023-07-13T02:28:41;7.28;;;6.05;;
68168;SDS011;54981;50.206;15.978;2023-07-13T02:31:12;8.38;;;6.22;;
68168;SDS011;54981;50.206;15.978;2023-07-13T02:33:44;6.70;;;5.82;;
68168;SDS011;54981;50.206;15.978;2023-07-13T02:36:15;6.05;;;5.30;;
68168;SDS011;54981;50.206;15.978;2023-07-13T02:38:46;7.35;;;5.78;;
68168;SDS011;54981;50.206;15.978;2023-07-13T02:41:16;7.45;;;6.20;;
68168;SDS011;54981;50.206;15.978;2023-07-13T02:43:47;10.00;;;6.35;;
68168;SDS011;54981;50.206;15.978;2023-07-13T02:46:17;9.55;;;5.50;;
68168;SDS011;54981;50.206;15.978;2023-07-13T02:48:49;6.45;;;5.85;;
68168;SDS011;54981;50.206;15.978;2023-07-13T02:51:19;9.00;;;6.47;;
68168;SDS011;54981;50.206;15.978;2023-07-13T02:53:50;6.82;;;5.80;;
68168;SDS011;54981;50.206;15.978;2023-07-13T02:56:22;6.57;;;5.97;;
68168;SDS011;54981;50.206;15.978;2023-07-13T02:58:54;8.77;;;6.50;;
68168;SDS011;54981;50.206;15.978;2023-07-13T03:01:25;9.55;;;7.00;;
68168;SDS011;54981;50.206;15.978;2023-07-13T03:03:55;8.40;;;6.78;;
68168;SDS011;54981;50.206;15.978;2023-07-13T03:06:26;8.02;;;6.25;;
68168;SDS011;54981;50.206;15.978;2023-07-13T03:08:59;7.32;;;6.43;;
68168;SDS011;54981;50.206;15.978;2023-07-13T03:11:30;11.93;;;6.97;;
68168;SDS011;54981;50.206;15.978;2023-07-13T03:14:01;9.45;;;7.05;;
68168;SDS011;54981;50.206;15.978;2023-07-13T03:16:31;8.13;;;6.85;;
68168;SDS011;54981;50.206;15.978;2023-07-13T03:19:02;9.68;;;6.80;;
68168;SDS011;54981;50.206;15.978;2023-07-13T03:21:32;8.77;;;7.03;;
68168;SDS011;54981;50.206;15.978;2023-07-13T03:24:03;6.80;;;6.05;;
68168;SDS011;54981;50.206;15.978;2023-07-13T03:26:33;11.23;;;6.50;;
68168;SDS011;54981;50.206;15.978;2023-07-13T03:29:04;8.70;;;7.05;;
68168;SDS011;54981;50.206;15.978;2023-07-13T03:31:35;10.95;;;7.10;;
68168;SDS011;54981;50.206;15.978;2023-07-13T03:34:06;9.75;;;6.82;;
68168;SDS011;54981;50.206;15.978;2023-07-13T03:36:37;12.90;;;6.78;;
68168;SDS011;54981;50.206;15.978;2023-07-13T03:39:08;8.18;;;5.82;;
68168;SDS011;54981;50.206;15.978;2023-07-13T03:41:39;9.30;;;6.70;;
68168;SDS011;54981;50.206;15.978;2023-07-13T03:44:09;9.63;;;6.65;;
68168;SDS011;54981;50.206;15.978;2023-07-13T03:46:40;11.32;;;7.03;;
68168;SDS011;54981;50.206;15.978;2023-07-13T03:49:10;8.13;;;6.50;;
68168;SDS011;54981;50.206;15.978;2023-07-13T03:51:41;8.23;;;6.15;;
68168;SDS011;54981;50.206;15.978;2023-07-13T03:54:11;7.55;;;6.53;;
68168;SDS011;54981;50.206;15.978;2023-07-13T03:56:42;10.23;;;6.88;;
68168;SDS011;54981;50.206;15.978;2023-07-13T03:59:12;16.50;;;7.63;;
68168;SDS011;54981;50.206;15.978;2023-07-13T04:01:43;9.63;;;6.70;;
68168;SDS011;54981;50.206;15.978;2023-07-13T04:04:14;11.25;;;7.55;;
68168;SDS011;54981;50.206;15.978;2023-07-13T04:06:45;13.48;;;7.97;;
68168;SDS011;54981;50.206;15.978;2023-07-13T04:09:16;9.82;;;6.60;;
68168;SDS011;54981;50.206;15.978;2023-07-13T04:11:46;13.25;;;7.53;;
68168;SDS011;54981;50.206;15.978;2023-07-13T04:14:16;13.35;;;7.35;;
68168;SDS011;54981;50.206;15.978;2023-07-13T04:16:47;13.80;;;7.95;;
68168;SDS011;54981;50.206;15.978;2023-07-13T04:19:17;11.65;;;7.30;;
68168;SDS011;54981;50.206;15.978;2023-07-13T04:21:48;16.08;;;7.88;;
68168;SDS011;54981;50.206;15.978;2023-07-13T04:24:18;13.00;;;7.43;;
68168;SDS011;54981;50.206;15.978;2023-07-13T04:26:49;11.90;;;6.88;;
68168;SDS011;54981;50.206;15.978;2023-07-13T04:29:19;14.27;;;8.07;;
68168;SDS011;54981;50.206;15.978;2023-07-13T04:31:50;15.25;;;7.53;;
68168;SDS011;54981;50.206;15.978;2023-07-13T04:34:20;16.85;;;7.43;;
68168;SDS011;54981;50.206;15.978;2023-07-13T04:36:54;11.95;;;7.60;;
68168;SDS011;54981;50.206;15.978;2023-07-13T04:39:24;13.85;;;8.48;;
68168;SDS011;54981;50.206;15.978;2023-07-13T04:41:54;10.63;;;7.47;;
68168;SDS011;54981;50.206;15.978;2023-07-13T04:44:25;11.70;;;8.00;;
68168;SDS011;54981;50.206;15.978;2023-07-13T04:46:56;13.55;;;8.85;;
68168;SDS011;54981;50.206;15.978;2023-07-13T04:49:26;13.68;;;8.20;;
68168;SDS011;54981;50.206;15.978;2023-07-13T04:51:57;15.65;;;8.90;;
68168;SDS011;54981;50.206;15.978;2023-07-13T04:54:27;13.23;;;8.82;;
68168;SDS011;54981;50.206;15.978;2023-07-13T04:56:57;13.45;;;7.70;;
68168;SDS011;54981;50.206;15.978;2023-07-13T04:59:28;9.50;;;8.38;;
68168;SDS011;54981;50.206;15.978;2023-07-13T05:01:58;12.48;;;7.68;;
68168;SDS011;54981;50.206;15.978;2023-07-13T05:04:29;9.93;;;7.40;;
68168;SDS011;54981;50.206;15.978;2023-07-13T05:06:59;11.93;;;7.88;;
68168;SDS011;54981;50.206;15.978;2023-07-13T05:09:30;9.23;;;6.88;;
68168;SDS011;54981;50.206;15.978;2023-07-13T05:12:00;12.25;;;7.25;;
68168;SDS011;54981;50.206;15.978;2023-07-13T05:14:30;6.93;;;5.90;;
68168;SDS011;54981;50.206;15.978;2023-07-13T05:17:01;12.20;;;7.03;;
68168;SDS011;54981;50.206;15.978;2023-07-13T05:19:31;9.05;;;6.93;;
68168;SDS011;54981;50.206;15.978;2023-07-13T05:22:02;11.18;;;6.78;;
68168;SDS011;54981;50.206;15.978;2023-07-13T05:24:33;7.68;;;6.60;;
68168;SDS011;54981;50.206;15.978;2023-07-13T05:27:04;8.93;;;6.03;;
68168;SDS011;54981;50.206;15.978;2023-07-13T05:29:35;7.00;;;5.68;;
68168;SDS011;54981;50.206;15.978;2023-07-13T05:32:05;6.80;;;5.78;;
68168;SDS011;54981;50.206;15.978;2023-07-13T05:34:36;11.35;;;6.00;;
68168;SDS011;54981;50.206;15.978;2023-07-13T05:37:07;8.52;;;5.70;;
68168;SDS011;54981;50.206;15.978;2023-07-13T05:39:37;7.60;;;5.78;;
68168;SDS011;54981;50.206;15.978;2023-07-13T05:42:08;8.70;;;6.20;;
68168;SDS011;54981;50.206;15.978;2023-07-13T05:44:38;8.48;;;6.10;;
68168;SDS011;54981;50.206;15.978;2023-07-13T05:47:09;8.55;;;6.90;;
68168;SDS011;54981;50.206;15.978;2023-07-13T05:49:39;9.90;;;7.13;;
68168;SDS011;54981;50.206;15.978;2023-07-13T05:52:10;10.68;;;7.50;;
68168;SDS011;54981;50.206;15.978;2023-07-13T05:54:40;9.40;;;6.55;;
68168;SDS011;54981;50.206;15.978;2023-07-13T05:57:11;8.90;;;7.30;;
68168;SDS011;54981;50.206;15.978;2023-07-13T05:59:41;11.23;;;7.50;;
68168;SDS011;54981;50.206;15.978;2023-07-13T06:02:13;11.02;;;6.90;;
68168;SDS011;54981;50.206;15.978;2023-07-13T06:04:44;9.75;;;7.35;;
68168;SDS011;54981;50.206;15.978;2023-07-13T06:07:14;12.48;;;7.82;;
68168;SDS011;54981;50.206;15.978;2023-07-13T06:09:44;11.55;;;6.82;;
68168;SDS011;54981;50.206;15.978;2023-07-13T06:12:15;11.18;;;7.00;;
68168;SDS011;54981;50.206;15.978;2023-07-13T06:14:45;11.70;;;7.25;;
68168;SDS011;54981;50.206;15.978;2023-07-13T06:17:16;9.70;;;7.05;;
68168;SDS011;54981;50.206;15.978;2023-07-13T06:19:46;7.63;;;4.80;;
68168;SDS011;54981;50.206;15.978;2023-07-13T06:22:17;7.03;;;4.25;;
68168;SDS011;54981;50.206;15.978;2023-07-13T06:24:47;7.53;;;5.40;;
68168;SDS011;54981;50.206;15.978;2023-07-13T06:27:18;7.97;;;5.32;;
68168;SDS011;54981;50.206;15.978;2023-07-13T06:29:48;8.88;;;5.65;;
68168;SDS011;54981;50.206;15.978;2023-07-13T06:32:19;5.60;;;4.35;;
68168;SDS011;54981;50.206;15.978;2023-07-13T06:34:49;6.10;;;4.70;;
68168;SDS011;54981;50.206;15.978;2023-07-13T06:37:21;5.63;;;4.28;;
68168;SDS011;54981;50.206;15.978;2023-07-13T06:39:52;9.32;;;5.07;;
68168;SDS011;54981;50.206;15.978;2023-07-13T06:42:22;5.53;;;4.18;;
68168;SDS011;54981;50.206;15.978;2023-07-13T06:44:53;6.65;;;4.30;;
68168;SDS011;54981;50.206;15.978;2023-07-13T06:47:23;6.53;;;4.65;;
68168;SDS011;54981;50.206;15.978;2023-07-13T06:49:53;6.13;;;4.50;;
68168;SDS011;54981;50.206;15.978;2023-07-13T06:52:24;8.15;;;4.72;;
68168;SDS011;54981;50.206;15.978;2023-07-13T06:54:54;8.13;;;4.72;;
68168;SDS011;54981;50.206;15.978;2023-07-13T06:57:25;7.88;;;4.35;;
68168;SDS011;54981;50.206;15.978;2023-07-13T06:59:56;5.63;;;4.28;;
68168;SDS011;54981;50.206;15.978;2023-07-13T07:02:27;4.70;;;4.05;;
68168;SDS011;54981;50.206;15.978;2023-07-13T07:04:57;4.60;;;3.83;;
68168;SDS011;54981;50.206;15.978;2023-07-13T07:07:28;4.60;;;4.00;;
68168;SDS011;54981;50.206;15.978;2023-07-13T07:09:58;5.10;;;3.88;;
68168;SDS011;54981;50.206;15.978;2023-07-13T07:12:29;5.65;;;4.47;;
68168;SDS011;54981;50.206;15.978;2023-07-13T07:14:59;4.00;;;3.50;;
68168;SDS011;54981;50.206;15.978;2023-07-13T07:17:29;4.63;;;3.53;;
68168;SDS011;54981;50.206;15.978;2023-07-13T07:20:00;4.75;;;4.10;;
68168;SDS011;54981;50.206;15.978;2023-07-13T07:22:31;5.45;;;3.95;;
68168;SDS011;54981;50.206;15.978;2023-07-13T07:25:01;5.28;;;3.72;;
68168;SDS011;54981;50.206;15.978;2023-07-13T07:27:32;5.60;;;3.63;;
68168;SDS011;54981;50.206;15.978;2023-07-13T07:30:03;5.43;;;3.55;;
68168;SDS011;54981;50.206;15.978;2023-07-13T07:32:33;5.88;;;3.38;;
68168;SDS011;54981;50.206;15.978;2023-07-13T07:35:04;3.75;;;3.25;;
68168;SDS011;54981;50.206;15.978;2023-07-13T07:37:35;4.43;;;3.97;;
68168;SDS011;54981;50.206;15.978;2023-07-13T07:40:05;7.32;;;3.80;;
68168;SDS011;54981;50.206;15.978;2023-07-13T07:42:36;4.50;;;4.00;;
68168;SDS011;54981;50.206;15.978;2023-07-13T07:45:07;4.93;;;3.50;;
68168;SDS011;54981;50.206;15.978;2023-07-13T07:47:37;5.70;;;3.63;;
68168;SDS011;54981;50.206;15.978;2023-07-13T07:50:08;4.47;;;4.05;;
68168;SDS011;54981;50.206;15.978;2023-07-13T07:52:39;3.50;;;3.20;;
68168;SDS011;54981;50.206;15.978;2023-07-13T07:55:10;4.18;;;3.75;;
68168;SDS011;54981;50.206;15.978;2023-07-13T07:57:40;4.65;;;3.75;;
68168;SDS011;54981;50.206;15.978;2023-07-13T08:00:10;8.23;;;3.72;;
68168;SDS011;54981;50.206;15.978;2023-07-13T08:02:42;7.22;;;3.60;;
68168;SDS011;54981;50.206;15.978;2023-07-13T08:05:12;3.42;;;2.70;;
68168;SDS011;54981;50.206;15.978;2023-07-13T08:07:43;5.22;;;3.65;;
68168;SDS011;54981;50.206;15.978;2023-07-13T08:10:13;4.10;;;3.42;;
68168;SDS011;54981;50.206;15.978;2023-07-13T08:12:44;4.18;;;3.72;;
68168;SDS011;54981;50.206;15.978;2023-07-13T08:15:15;3.67;;;3.30;;
68168;SDS011;54981;50.206;15.978;2023-07-13T08:17:47;3.90;;;3.60;;
68168;SDS011;54981;50.206;15.978;2023-07-13T08:20:18;5.45;;;3.80;;
68168;SDS011;54981;50.206;15.978;2023-07-13T08:22:49;3.72;;;3.10;;
68168;SDS011;54981;50.206;15.978;2023-07-13T08:25:19;4.22;;;3.00;;
68168;SDS011;54981;50.206;15.978;2023-07-13T08:27:50;7.50;;;3.03;;
68168;SDS011;54981;50.206;15.978;2023-07-13T08:30:21;4.88;;;3.20;;
68168;SDS011;54981;50.206;15.978;2023-07-13T08:32:52;5.10;;;3.42;;
68168;SDS011;54981;50.206;15.978;2023-07-13T08:35:23;3.90;;;3.25;;
68168;SDS011;54981;50.206;15.978;2023-07-13T08:37:55;4.50;;;3.15;;
68168;SDS011;54981;50.206;15.978;2023-07-13T08:40:26;5.18;;;3.60;;
68168;SDS011;54981;50.206;15.978;2023-07-13T08:42:58;3.72;;;3.22;;
68168;SDS011;54981;50.206;15.978;2023-07-13T08:45:41;4.88;;;3.63;;
68168;SDS011;54981;50.206;15.978;2023-07-13T08:48:21;4.05;;;3.28;;
68168;SDS011;54981;50.206;15.978;2023-07-13T08:51:02;4.88;;;3.22;;
68168;SDS011;54981;50.206;15.978;2023-07-13T08:53:40;6.13;;;3.17;;
68168;SDS011;54981;50.206;15.978;2023-07-13T08:56:18;3.75;;;3.00;;
68168;SDS011;54981;50.206;15.978;2023-07-13T08:58:58;3.38;;;3.08;;
68168;SDS011;54981;50.206;15.978;2023-07-13T09:04:26;3.85;;;3.00;;
68168;SDS011;54981;50.206;15.978;2023-07-13T09:07:05;3.38;;;2.25;;
68168;SDS011;54981;50.206;15.978;2023-07-13T09:15:16;2.53;;;2.20;;
68168;SDS011;54981;50.206;15.978;2023-07-13T09:17:51;2.47;;;2.28;;
68168;SDS011;54981;50.206;15.978;2023-07-13T09:20:25;3.38;;;2.70;;
68168;SDS011;54981;50.206;15.978;2023-07-13T09:23:03;2.50;;;2.30;;
68168;SDS011;54981;50.206;15.978;2023-07-13T09:25:37;2.95;;;1.83;;
68168;SDS011;54981;50.206;15.978;2023-07-13T09:30:58;2.75;;;2.25;;
68168;SDS011;54981;50.206;15.978;2023-07-13T09:33:33;3.00;;;2.50;;
68168;SDS011;54981;50.206;15.978;2023-07-13T09:36:16;4.18;;;2.28;;
68168;SDS011;54981;50.206;15.978;2023-07-13T09:38:48;5.07;;;2.70;;
68168;SDS011;54981;50.206;15.978;2023-07-13T09:44:13;3.03;;;2.00;;
68168;SDS011;54981;50.206;15.978;2023-07-13T09:46:55;2.47;;;2.28;;
68168;SDS011;54981;50.206;15.978;2023-07-13T09:49:26;2.45;;;2.25;;
68168;SDS011;54981;50.206;15.978;2023-07-13T09:52:03;4.13;;;2.50;;
68168;SDS011;54981;50.206;15.978;2023-07-13T09:54:36;4.43;;;2.65;;
68168;SDS011;54981;50.206;15.978;2023-07-13T09:57:14;2.83;;;2.30;;
68168;SDS011;54981;50.206;15.978;2023-07-13T09:59:47;2.53;;;2.33;;
68168;SDS011;54981;50.206;15.978;2023-07-13T10:02:29;2.78;;;2.30;;
68168;SDS011;54981;50.206;15.978;2023-07-13T10:05:04;2.50;;;2.30;;
68168;SDS011;54981;50.206;15.978;2023-07-13T10:07:38;2.53;;;2.33;;
68168;SDS011;54981;50.206;15.978;2023-07-13T10:10:17;3.13;;;2.75;;
68168;SDS011;54981;50.206;15.978;2023-07-13T10:12:50;3.30;;;2.30;;
68168;SDS011;54981;50.206;15.978;2023-07-13T10:15:22;2.80;;;2.33;;
68168;SDS011;54981;50.206;15.978;2023-07-13T10:17:55;3.25;;;2.95;;
68168;SDS011;54981;50.206;15.978;2023-07-13T10:20:28;4.10;;;2.63;;
68168;SDS011;54981;50.206;15.978;2023-07-13T10:23:04;4.78;;;3.05;;
68168;SDS011;54981;50.206;15.978;2023-07-13T10:25:41;2.70;;;2.50;;
68168;SDS011;54981;50.206;15.978;2023-07-13T10:28:31;3.58;;;2.40;;
68168;SDS011;54981;50.206;15.978;2023-07-13T10:31:08;3.42;;;2.78;;
68168;SDS011;54981;50.206;15.978;2023-07-13T10:33:43;2.60;;;2.40;;
68168;SDS011;54981;50.206;15.978;2023-07-13T10:39:00;3.05;;;2.75;;
68168;SDS011;54981;50.206;15.978;2023-07-13T10:41:35;3.90;;;2.80;;
68168;SDS011;54981;50.206;15.978;2023-07-13T10:44:15;3.88;;;2.72;;
68168;SDS011;54981;50.206;15.978;2023-07-13T10:46:50;3.10;;;2.75;;
68168;SDS011;54981;50.206;15.978;2023-07-13T10:49:24;3.42;;;2.60;;
68168;SDS011;54981;50.206;15.978;2023-07-13T10:51:56;4.10;;;2.55;;
68168;SDS011;54981;50.206;15.978;2023-07-13T10:54:30;3.05;;;2.47;;
68168;SDS011;54981;50.206;15.978;2023-07-13T11:00:10;3.38;;;3.05;;
68168;SDS011;54981;50.206;15.978;2023-07-13T11:02:56;4.20;;;3.35;;
68168;SDS011;54981;50.206;15.978;2023-07-13T11:05:31;4.20;;;3.17;;
68168;SDS011;54981;50.206;15.978;2023-07-13T11:08:12;3.40;;;2.85;;
68168;SDS011;54981;50.206;15.978;2023-07-13T11:13:38;3.95;;;2.75;;
68168;SDS011;54981;50.206;15.978;2023-07-13T11:21:32;3.55;;;2.45;;
68168;SDS011;54981;50.206;15.978;2023-07-13T11:24:04;2.55;;;2.33;;
68168;SDS011;54981;50.206;15.978;2023-07-13T11:31:51;3.25;;;2.50;;
68168;SDS011;54981;50.206;15.978;2023-07-13T11:34:31;2.83;;;2.60;;
68168;SDS011;54981;50.206;15.978;2023-07-13T11:37:10;3.08;;;2.08;;
68168;SDS011;54981;50.206;15.978;2023-07-13T11:39:45;3.38;;;2.40;;
68168;SDS011;54981;50.206;15.978;2023-07-13T11:44:50;2.20;;;1.90;;
68168;SDS011;54981;50.206;15.978;2023-07-13T11:47:23;2.20;;;1.80;;
68168;SDS011;54981;50.206;15.978;2023-07-13T11:49:55;2.20;;;2.00;;
68168;SDS011;54981;50.206;15.978;2023-07-13T11:52:30;3.05;;;2.30;;
68168;SDS011;54981;50.206;15.978;2023-07-13T11:55:08;3.78;;;2.25;;
68168;SDS011;54981;50.206;15.978;2023-07-13T11:57:56;3.92;;;2.15;;
68168;SDS011;54981;50.206;15.978;2023-07-13T12:00:29;2.83;;;2.40;;
68168;SDS011;54981;50.206;15.978;2023-07-13T12:03:03;3.47;;;2.88;;
68168;SDS011;54981;50.206;15.978;2023-07-13T12:05:35;2.85;;;2.65;;
68168;SDS011;54981;50.206;15.978;2023-07-13T12:08:10;2.55;;;2.30;;
68168;SDS011;54981;50.206;15.978;2023-07-13T12:10:44;3.30;;;2.20;;
68168;SDS011;54981;50.206;15.978;2023-07-13T12:13:17;5.15;;;2.83;;
68168;SDS011;54981;50.206;15.978;2023-07-13T12:15:48;3.28;;;2.67;;
68168;SDS011;54981;50.206;15.978;2023-07-13T12:18:20;4.97;;;2.70;;
68168;SDS011;54981;50.206;15.978;2023-07-13T12:20:59;2.35;;;2.15;;
68168;SDS011;54981;50.206;15.978;2023-07-13T12:23:33;6.88;;;3.20;;
68168;SDS011;54981;50.206;15.978;2023-07-13T12:26:06;3.70;;;2.72;;
68168;SDS011;54981;50.206;15.978;2023-07-13T12:28:43;5.13;;;2.60;;
68168;SDS011;54981;50.206;15.978;2023-07-13T12:34:07;2.88;;;2.42;;
68168;SDS011;54981;50.206;15.978;2023-07-13T12:36:56;3.67;;;2.50;;
68168;SDS011;54981;50.206;15.978;2023-07-13T12:39:46;3.50;;;2.70;;
68168;SDS011;54981;50.206;15.978;2023-07-13T12:44:56;4.50;;;2.55;;
68168;SDS011;54981;50.206;15.978;2023-07-13T12:47:55;3.83;;;2.10;;
68168;SDS011;54981;50.206;15.978;2023-07-13T12:50:37;6.70;;;2.35;;
68168;SDS011;54981;50.206;15.978;2023-07-13T12:53:18;2.92;;;1.70;;
68168;SDS011;54981;50.206;15.978;2023-07-13T12:55:54;3.20;;;1.88;;
68168;SDS011;54981;50.206;15.978;2023-07-13T12:58:35;2.28;;;1.73;;
68168;SDS011;54981;50.206;15.978;2023-07-13T13:01:07;2.08;;;1.50;;
68168;SDS011;54981;50.206;15.978;2023-07-13T13:03:44;1.60;;;1.50;;
68168;SDS011;54981;50.206;15.978;2023-07-13T13:08:52;3.08;;;1.70;;
68168;SDS011;54981;50.206;15.978;2023-07-13T13:11:25;3.45;;;1.80;;
68168;SDS011;54981;50.206;15.978;2023-07-13T13:13:56;2.75;;;1.52;;
68168;SDS011;54981;50.206;15.978;2023-07-13T13:18:57;2.15;;;1.85;;
68168;SDS011;54981;50.206;15.978;2023-07-13T13:21:32;2.95;;;1.98;;
68168;SDS011;54981;50.206;15.978;2023-07-13T13:24:12;3.45;;;1.70;;
68168;SDS011;54981;50.206;15.978;2023-07-13T13:26:45;3.63;;;2.08;;
68168;SDS011;54981;50.206;15.978;2023-07-13T13:29:21;3.25;;;2.03;;
68168;SDS011;54981;50.206;15.978;2023-07-13T13:31:55;1.80;;;1.58;;
68168;SDS011;54981;50.206;15.978;2023-07-13T13:34:25;4.53;;;1.88;;
68168;SDS011;54981;50.206;15.978;2023-07-13T13:36:56;2.65;;;1.85;;
68168;SDS011;54981;50.206;15.978;2023-07-13T13:39:28;2.17;;;1.73;;
68168;SDS011;54981;50.206;15.978;2023-07-13T13:42:09;2.03;;;1.63;;
68168;SDS011;54981;50.206;15.978;2023-07-13T13:44:40;2.97;;;2.00;;
68168;SDS011;54981;50.206;15.978;2023-07-13T13:47:21;2.03;;;1.70;;
68168;SDS011;54981;50.206;15.978;2023-07-13T13:49:59;2.58;;;1.90;;
68168;SDS011;54981;50.206;15.978;2023-07-13T13:52:30;5.28;;;2.30;;
68168;SDS011;54981;50.206;15.978;2023-07-13T13:55:04;2.08;;;1.70;;
68168;SDS011;54981;50.206;15.978;2023-07-13T13:57:41;3.45;;;1.85;;
68168;SDS011;54981;50.206;15.978;2023-07-13T14:00:12;2.45;;;1.85;;
68168;SDS011;54981;50.206;15.978;2023-07-13T14:02:47;3.78;;;1.88;;
68168;SDS011;54981;50.206;15.978;2023-07-13T14:05:21;2.10;;;1.85;;
68168;SDS011;54981;50.206;15.978;2023-07-13T14:07:53;2.25;;;1.85;;
68168;SDS011;54981;50.206;15.978;2023-07-13T14:10:24;3.08;;;2.50;;
68168;SDS011;54981;50.206;15.978;2023-07-13T14:12:55;3.20;;;2.42;;
68168;SDS011;54981;50.206;15.978;2023-07-13T14:15:27;3.00;;;2.13;;
68168;SDS011;54981;50.206;15.978;2023-07-13T14:18:00;2.55;;;1.92;;
68168;SDS011;54981;50.206;15.978;2023-07-13T14:20:31;3.42;;;1.70;;
68168;SDS011;54981;50.206;15.978;2023-07-13T14:23:02;2.55;;;1.63;;
68168;SDS011;54981;50.206;15.978;2023-07-13T14:25:32;2.20;;;1.90;;
68168;SDS011;54981;50.206;15.978;2023-07-13T14:28:26;2.53;;;1.83;;
68168;SDS011;54981;50.206;15.978;2023-07-13T14:30:55;2.78;;;1.70;;
68168;SDS011;54981;50.206;15.978;2023-07-13T14:33:25;2.78;;;1.80;;
68168;SDS011;54981;50.206;15.978;2023-07-13T14:35:56;2.67;;;1.75;;
68168;SDS011;54981;50.206;15.978;2023-07-13T14:38:26;2.47;;;1.90;;
68168;SDS011;54981;50.206;15.978;2023-07-13T14:40:57;2.45;;;2.00;;
68168;SDS011;54981;50.206;15.978;2023-07-13T14:43:27;2.40;;;1.50;;
68168;SDS011;54981;50.206;15.978;2023-07-13T14:45:59;1.92;;;1.70;;
68168;SDS011;54981;50.206;15.978;2023-07-13T14:48:29;2.80;;;1.77;;
68168;SDS011;54981;50.206;15.978;2023-07-13T14:51:00;4.10;;;2.33;;
68168;SDS011;54981;50.206;15.978;2023-07-13T14:53:31;2.08;;;1.63;;
68168;SDS011;54981;50.206;15.978;2023-07-13T14:56:01;2.95;;;1.85;;
68168;SDS011;54981;50.206;15.978;2023-07-13T14:58:31;2.97;;;1.90;;
68168;SDS011;54981;50.206;15.978;2023-07-13T15:01:02;2.00;;;1.50;;
68168;SDS011;54981;50.206;15.978;2023-07-13T15:03:32;4.60;;;1.92;;
68168;SDS011;54981;50.206;15.978;2023-07-13T15:06:03;3.38;;;1.88;;
68168;SDS011;54981;50.206;15.978;2023-07-13T15:08:34;3.55;;;1.90;;
68168;SDS011;54981;50.206;15.978;2023-07-13T15:11:05;3.47;;;1.73;;
68168;SDS011;54981;50.206;15.978;2023-07-13T15:13:35;2.72;;;1.88;;
68168;SDS011;54981;50.206;15.978;2023-07-13T15:16:16;2.00;;;1.80;;
68168;SDS011;54981;50.206;15.978;2023-07-13T15:18:48;3.07;;;2.00;;
68168;SDS011;54981;50.206;15.978;2023-07-13T15:21:21;4.25;;;2.10;;
68168;SDS011;54981;50.206;15.978;2023-07-13T15:23:53;4.30;;;2.50;;
68168;SDS011;54981;50.206;15.978;2023-07-13T15:26:24;4.93;;;2.10;;
68168;SDS011;54981;50.206;15.978;2023-07-13T15:28:54;3.00;;;1.92;;
68168;SDS011;54981;50.206;15.978;2023-07-13T15:31:25;4.55;;;2.30;;
68168;SDS011;54981;50.206;15.978;2023-07-13T15:34:01;3.53;;;2.20;;
68168;SDS011;54981;50.206;15.978;2023-07-13T15:36:37;4.32;;;2.40;;
68168;SDS011;54981;50.206;15.978;2023-07-13T15:39:08;2.75;;;2.08;;
68168;SDS011;54981;50.206;15.978;2023-07-13T15:41:45;3.67;;;2.05;;
68168;SDS011;54981;50.206;15.978;2023-07-13T15:46:50;5.53;;;2.15;;
68168;SDS011;54981;50.206;15.978;2023-07-13T15:49:20;4.10;;;2.13;;
68168;SDS011;54981;50.206;15.978;2023-07-13T15:51:51;3.30;;;2.40;;
68168;SDS011;54981;50.206;15.978;2023-07-13T15:54:22;3.90;;;2.10;;
68168;SDS011;54981;50.206;15.978;2023-07-13T15:56:54;4.60;;;1.85;;